sensor_id;sensor_type;location;lat;lon;timestamp;pressure;altitude;pressure_sealevel;temperature;humidity
51829;BME280;37881;48.024;8.774;2023-08-12T00:00:57;94338.75;;;17.76;100.00
51829;BME280;37881;48.024;8.774;2023-08-12T00:03:24;94337.19;;;17.75;100.00
51829;BME280;37881;48.024;8.774;2023-08-12T00:05:52;94327.91;;;17.69;100.00
51829;BME280;37881;48.024;8.774;2023-08-12T00:08:19;94326.94;;;17.63;100.00
51829;BME280;37881;48.024;8.774;2023-08-12T00:10:46;94335.38;;;17.59;100.00
51829;BME280;37881;48.024;8.774;2023-08-12T00:13:12;94325.19;;;17.56;100.00
51829;BME280;37881;48.024;8.774;2023-08-12T00:15:44;94323.66;;;17.55;100.00
51829;BME280;37881;48.024;8.774;2023-08-12T00:18:11;94325.78;;;17.51;100.00
51829;BME280;37881;48.024;8.774;2023-08-12T00:20:38;94322.34;;;17.47;100.00
51829;BME280;37881;48.024;8.774;2023-08-12T00:23:05;94318.13;;;17.42;100.00
51829;BME280;37881;48.024;8.774;2023-08-12T00:25:32;94316.28;;;17.39;100.00
51829;BME280;37881;48.024;8.774;2023-08-12T00:27:59;94317.94;;;17.36;100.00
51829;BME280;37881;48.024;8.774;2023-08-12T00:30:26;94331.16;;;17.32;100.00
51829;BME280;37881;48.024;8.774;2023-08-12T00:32:52;94326.63;;;17.26;100.00
51829;BME280;37881;48.024;8.774;2023-08-12T00:35:19;94321.53;;;17.24;100.00
51829;BME280;37881;48.024;8.774;2023-08-12T00:37:46;94317.22;;;17.23;100.00
51829;BME280;37881;48.024;8.774;2023-08-12T00:40:13;94320.75;;;17.24;100.00
51829;BME280;37881;48.024;8.774;2023-08-12T00:42:40;94317.66;;;17.22;100.00
51829;BME280;37881;48.024;8.774;2023-08-12T00:45:10;94318.44;;;17.22;100.00
51829;BME280;37881;48.024;8.774;2023-08-12T00:47:40;94315.00;;;17.18;100.00
51829;BME280;37881;48.024;8.774;2023-08-12T00:50:08;94318.34;;;17.13;100.00
51829;BME280;37881;48.024;8.774;2023-08-12T00:52:37;94307.25;;;17.13;100.00
51829;BME280;37881;48.024;8.774;2023-08-12T00:55:04;94305.97;;;17.05;100.00
51829;BME280;37881;48.024;8.774;2023-08-12T00:57:31;94309.72;;;16.98;100.00
51829;BME280;37881;48.024;8.774;2023-08-12T00:59:58;94305.22;;;16.91;100.00
51829;BME280;37881;48.024;8.774;2023-08-12T01:02:25;94304.78;;;16.93;100.00
51829;BME280;37881;48.024;8.774;2023-08-12T01:04:52;94303.84;;;16.96;100.00
51829;BME280;37881;48.024;8.774;2023-08-12T01:07:19;94303.22;;;16.92;100.00
51829;BME280;37881;48.024;8.774;2023-08-12T01:09:47;94303.97;;;16.80;100.00
51829;BME280;37881;48.024;8.774;2023-08-12T01:14:59;94300.91;;;16.90;100.00
51829;BME280;37881;48.024;8.774;2023-08-12T01:17:29;94299.13;;;16.96;100.00
51829;BME280;37881;48.024;8.774;2023-08-12T01:19:58;94299.75;;;17.01;100.00
51829;BME280;37881;48.024;8.774;2023-08-12T01:22:27;94297.97;;;17.07;100.00
51829;BME280;37881;48.024;8.774;2023-08-12T01:24:55;94301.41;;;17.11;100.00
51829;BME280;37881;48.024;8.774;2023-08-12T01:27:21;94299.28;;;17.02;100.00
51829;BME280;37881;48.024;8.774;2023-08-12T01:29:50;94298.09;;;16.77;100.00
51829;BME280;37881;48.024;8.774;2023-08-12T01:32:41;94299.81;;;16.49;100.00
51829;BME280;37881;48.024;8.774;2023-08-12T01:35:19;94301.25;;;16.54;100.00
51829;BME280;37881;48.024;8.774;2023-08-12T01:37:52;94290.81;;;16.71;100.00
51829;BME280;37881;48.024;8.774;2023-08-12T01:40:20;94289.16;;;16.86;100.00
51829;BME280;37881;48.024;8.774;2023-08-12T01:42:47;94281.50;;;16.90;100.00
51829;BME280;37881;48.024;8.774;2023-08-12T01:45:15;94281.81;;;16.80;100.00
51829;BME280;37881;48.024;8.774;2023-08-12T01:47:45;94281.53;;;16.65;100.00
51829;BME280;37881;48.024;8.774;2023-08-12T01:50:13;94279.94;;;16.76;100.00
51829;BME280;37881;48.024;8.774;2023-08-12T01:52:40;94279.94;;;16.89;100.00
51829;BME280;37881;48.024;8.774;2023-08-12T01:55:07;94276.59;;;16.94;100.00
51829;BME280;37881;48.024;8.774;2023-08-12T01:57:34;94282.00;;;16.98;100.00
51829;BME280;37881;48.024;8.774;2023-08-12T02:00:02;94278.06;;;16.86;100.00
51829;BME280;37881;48.024;8.774;2023-08-12T02:02:29;94280.28;;;16.78;100.00
51829;BME280;37881;48.024;8.774;2023-08-12T02:04:55;94279.94;;;16.76;100.00
51829;BME280;37881;48.024;8.774;2023-08-12T02:07:22;94276.06;;;16.87;100.00
51829;BME280;37881;48.024;8.774;2023-08-12T02:09:49;94276.63;;;16.82;100.00
51829;BME280;37881;48.024;8.774;2023-08-12T02:12:15;94272.19;;;16.84;100.00
51829;BME280;37881;48.024;8.774;2023-08-12T02:14:42;94280.03;;;16.86;100.00
51829;BME280;37881;48.024;8.774;2023-08-12T02:17:09;94281.16;;;16.88;100.00
51829;BME280;37881;48.024;8.774;2023-08-12T02:19:36;94272.28;;;16.93;100.00
51829;BME280;37881;48.024;8.774;2023-08-12T02:22:04;94268.94;;;16.99;100.00
51829;BME280;37881;48.024;8.774;2023-08-12T02:24:30;94271.13;;;17.04;100.00
51829;BME280;37881;48.024;8.774;2023-08-12T02:26:57;94264.38;;;17.05;100.00
51829;BME280;37881;48.024;8.774;2023-08-12T02:29:24;94273.34;;;17.09;100.00
51829;BME280;37881;48.024;8.774;2023-08-12T02:31:51;94266.22;;;17.08;100.00
51829;BME280;37881;48.024;8.774;2023-08-12T02:34:18;94267.69;;;17.00;100.00
51829;BME280;37881;48.024;8.774;2023-08-12T02:36:44;94265.25;;;17.02;100.00
51829;BME280;37881;48.024;8.774;2023-08-12T02:39:11;94259.63;;;16.80;100.00
51829;BME280;37881;48.024;8.774;2023-08-12T02:41:38;94264.13;;;16.64;100.00
51829;BME280;37881;48.024;8.774;2023-08-12T02:44:05;94258.66;;;16.73;100.00
51829;BME280;37881;48.024;8.774;2023-08-12T02:46:32;94266.53;;;16.75;100.00
51829;BME280;37881;48.024;8.774;2023-08-12T02:48:58;94256.34;;;16.85;100.00
51829;BME280;37881;48.024;8.774;2023-08-12T02:51:25;94255.66;;;16.81;100.00
51829;BME280;37881;48.024;8.774;2023-08-12T02:53:52;94256.88;;;16.80;100.00
51829;BME280;37881;48.024;8.774;2023-08-12T02:56:18;94253.78;;;16.90;100.00
51829;BME280;37881;48.024;8.774;2023-08-12T02:58:45;94250.53;;;16.92;100.00
51829;BME280;37881;48.024;8.774;2023-08-12T03:01:13;94250.31;;;16.99;100.00
51829;BME280;37881;48.024;8.774;2023-08-12T03:03:40;94240.50;;;17.07;100.00
51829;BME280;37881;48.024;8.774;2023-08-12T03:06:07;94246.28;;;17.00;100.00
51829;BME280;37881;48.024;8.774;2023-08-12T03:08:34;94251.44;;;16.76;100.00
51829;BME280;37881;48.024;8.774;2023-08-12T03:11:01;94244.47;;;16.71;100.00
51829;BME280;37881;48.024;8.774;2023-08-12T03:13:29;94248.78;;;16.85;100.00
51829;BME280;37881;48.024;8.774;2023-08-12T03:15:56;94239.91;;;16.90;100.00
51829;BME280;37881;48.024;8.774;2023-08-12T03:18:23;94240.75;;;17.00;100.00
51829;BME280;37881;48.024;8.774;2023-08-12T03:20:50;94246.56;;;16.93;100.00
51829;BME280;37881;48.024;8.774;2023-08-12T03:23:16;94244.44;;;16.97;100.00
51829;BME280;37881;48.024;8.774;2023-08-12T03:25:43;94235.19;;;17.00;100.00
51829;BME280;37881;48.024;8.774;2023-08-12T03:28:10;94240.69;;;16.91;100.00
51829;BME280;37881;48.024;8.774;2023-08-12T03:30:37;94238.78;;;16.88;100.00
51829;BME280;37881;48.024;8.774;2023-08-12T03:33:04;94244.22;;;16.91;100.00
51829;BME280;37881;48.024;8.774;2023-08-12T03:35:31;94242.88;;;16.96;100.00
51829;BME280;37881;48.024;8.774;2023-08-12T03:37:57;94243.78;;;16.93;100.00
51829;BME280;37881;48.024;8.774;2023-08-12T03:40:24;94248.22;;;16.90;100.00
51829;BME280;37881;48.024;8.774;2023-08-12T03:42:51;94241.38;;;16.69;100.00
51829;BME280;37881;48.024;8.774;2023-08-12T03:45:18;94248.16;;;16.55;100.00
51829;BME280;37881;48.024;8.774;2023-08-12T03:47:44;94249.84;;;16.53;100.00
51829;BME280;37881;48.024;8.774;2023-08-12T03:50:11;94250.59;;;16.53;100.00
51829;BME280;37881;48.024;8.774;2023-08-12T03:52:38;94247.50;;;16.64;100.00
51829;BME280;37881;48.024;8.774;2023-08-12T03:55:05;94252.22;;;16.76;100.00
51829;BME280;37881;48.024;8.774;2023-08-12T03:57:32;94250.47;;;16.83;100.00
51829;BME280;37881;48.024;8.774;2023-08-12T03:59:59;94250.09;;;16.93;100.00
51829;BME280;37881;48.024;8.774;2023-08-12T04:02:26;94252.22;;;16.89;100.00
51829;BME280;37881;48.024;8.774;2023-08-12T04:04:52;94245.00;;;16.79;100.00
51829;BME280;37881;48.024;8.774;2023-08-12T04:07:19;94250.28;;;16.64;100.00
51829;BME280;37881;48.024;8.774;2023-08-12T04:09:46;94248.81;;;16.60;100.00
51829;BME280;37881;48.024;8.774;2023-08-12T04:12:13;94250.72;;;16.63;100.00
51829;BME280;37881;48.024;8.774;2023-08-12T04:14:39;94249.84;;;16.53;100.00
51829;BME280;37881;48.024;8.774;2023-08-12T04:17:07;94252.50;;;16.56;100.00
51829;BME280;37881;48.024;8.774;2023-08-12T04:19:34;94253.38;;;16.53;100.00
51829;BME280;37881;48.024;8.774;2023-08-12T04:22:01;94244.41;;;16.62;100.00
51829;BME280;37881;48.024;8.774;2023-08-12T04:24:28;94242.59;;;16.68;100.00
51829;BME280;37881;48.024;8.774;2023-08-12T04:26:54;94242.34;;;16.75;100.00
51829;BME280;37881;48.024;8.774;2023-08-12T04:29:21;94236.38;;;16.77;100.00
51829;BME280;37881;48.024;8.774;2023-08-12T04:31:48;94238.38;;;16.76;100.00
51829;BME280;37881;48.024;8.774;2023-08-12T04:34:14;94236.59;;;16.70;100.00
51829;BME280;37881;48.024;8.774;2023-08-12T04:36:41;94231.84;;;16.70;100.00
51829;BME280;37881;48.024;8.774;2023-08-12T04:39:10;94243.34;;;16.82;100.00
51829;BME280;37881;48.024;8.774;2023-08-12T04:41:37;94239.59;;;16.75;100.00
51829;BME280;37881;48.024;8.774;2023-08-12T04:44:05;94245.44;;;16.77;100.00
51829;BME280;37881;48.024;8.774;2023-08-12T04:46:32;94240.94;;;16.71;100.00
51829;BME280;37881;48.024;8.774;2023-08-12T04:48:59;94233.28;;;16.75;100.00
51829;BME280;37881;48.024;8.774;2023-08-12T04:51:26;94238.03;;;16.74;100.00
51829;BME280;37881;48.024;8.774;2023-08-12T04:53:53;94235.66;;;16.99;100.00
51829;BME280;37881;48.024;8.774;2023-08-12T04:56:20;94233.22;;;17.01;100.00
51829;BME280;37881;48.024;8.774;2023-08-12T04:58:46;94239.00;;;16.93;100.00
51829;BME280;37881;48.024;8.774;2023-08-12T05:01:13;94233.72;;;16.86;100.00
51829;BME280;37881;48.024;8.774;2023-08-12T05:03:40;94229.53;;;17.04;100.00
51829;BME280;37881;48.024;8.774;2023-08-12T05:06:07;94238.97;;;17.28;100.00
51829;BME280;37881;48.024;8.774;2023-08-12T05:08:34;94244.19;;;17.48;100.00
51829;BME280;37881;48.024;8.774;2023-08-12T05:11:00;94239.47;;;17.58;100.00
51829;BME280;37881;48.024;8.774;2023-08-12T05:13:27;94239.53;;;17.67;100.00
51829;BME280;37881;48.024;8.774;2023-08-12T05:15:56;94238.44;;;17.65;100.00
51829;BME280;37881;48.024;8.774;2023-08-12T05:18:23;94245.22;;;17.42;100.00
51829;BME280;37881;48.024;8.774;2023-08-12T05:20:51;94231.34;;;17.64;100.00
51829;BME280;37881;48.024;8.774;2023-08-12T05:23:20;94228.94;;;17.97;100.00
51829;BME280;37881;48.024;8.774;2023-08-12T05:25:47;94218.97;;;18.18;100.00
51829;BME280;37881;48.024;8.774;2023-08-12T05:28:14;94218.28;;;18.45;100.00
51829;BME280;37881;48.024;8.774;2023-08-12T05:30:40;94220.44;;;18.41;100.00
51829;BME280;37881;48.024;8.774;2023-08-12T05:33:07;94225.34;;;18.37;100.00
51829;BME280;37881;48.024;8.774;2023-08-12T05:35:35;94222.56;;;18.37;100.00
51829;BME280;37881;48.024;8.774;2023-08-12T05:38:02;94223.97;;;18.42;100.00
51829;BME280;37881;48.024;8.774;2023-08-12T05:40:28;94231.06;;;18.43;100.00
51829;BME280;37881;48.024;8.774;2023-08-12T05:42:55;94226.63;;;18.54;100.00
51829;BME280;37881;48.024;8.774;2023-08-12T05:45:22;94227.28;;;18.68;100.00
51829;BME280;37881;48.024;8.774;2023-08-12T05:47:49;94229.91;;;18.71;100.00
51829;BME280;37881;48.024;8.774;2023-08-12T05:50:15;94232.38;;;18.79;100.00
51829;BME280;37881;48.024;8.774;2023-08-12T05:52:43;94222.56;;;18.96;100.00
51829;BME280;37881;48.024;8.774;2023-08-12T05:55:10;94233.13;;;18.61;100.00
51829;BME280;37881;48.024;8.774;2023-08-12T05:57:37;94225.28;;;18.68;100.00
51829;BME280;37881;48.024;8.774;2023-08-12T06:00:05;94226.25;;;18.84;100.00
51829;BME280;37881;48.024;8.774;2023-08-12T06:02:31;94227.34;;;19.23;100.00
51829;BME280;37881;48.024;8.774;2023-08-12T06:04:58;94227.03;;;19.30;100.00
51829;BME280;37881;48.024;8.774;2023-08-12T06:07:25;94229.97;;;19.18;100.00
51829;BME280;37881;48.024;8.774;2023-08-12T06:09:52;94226.13;;;19.06;100.00
51829;BME280;37881;48.024;8.774;2023-08-12T06:12:18;94231.66;;;19.15;100.00
51829;BME280;37881;48.024;8.774;2023-08-12T06:14:45;94214.91;;;22.17;100.00
51829;BME280;37881;48.024;8.774;2023-08-12T06:17:12;94212.41;;;23.51;100.00
51829;BME280;37881;48.024;8.774;2023-08-12T06:19:39;94203.06;;;25.59;100.00
51829;BME280;37881;48.024;8.774;2023-08-12T06:22:06;94217.19;;;25.10;100.00
51829;BME280;37881;48.024;8.774;2023-08-12T06:24:33;94214.94;;;25.20;100.00
51829;BME280;37881;48.024;8.774;2023-08-12T06:27:00;94207.78;;;25.90;98.80
51829;BME280;37881;48.024;8.774;2023-08-12T06:29:26;94204.78;;;27.20;88.97
51829;BME280;37881;48.024;8.774;2023-08-12T06:31:53;94205.88;;;29.64;75.76
51829;BME280;37881;48.024;8.774;2023-08-12T06:34:20;94218.66;;;29.71;71.33
51829;BME280;37881;48.024;8.774;2023-08-12T06:36:47;94219.47;;;28.07;76.41
51829;BME280;37881;48.024;8.774;2023-08-12T06:39:14;94218.81;;;25.22;97.86
51829;BME280;37881;48.024;8.774;2023-08-12T06:41:40;94217.56;;;24.11;100.00
51829;BME280;37881;48.024;8.774;2023-08-12T06:44:07;94219.66;;;23.64;100.00
51829;BME280;37881;48.024;8.774;2023-08-12T06:46:34;94232.19;;;23.68;100.00
51829;BME280;37881;48.024;8.774;2023-08-12T06:49:01;94229.38;;;23.22;100.00
51829;BME280;37881;48.024;8.774;2023-08-12T06:51:27;94235.19;;;22.27;100.00
51829;BME280;37881;48.024;8.774;2023-08-12T06:53:54;94229.09;;;22.28;100.00
51829;BME280;37881;48.024;8.774;2023-08-12T06:56:21;94222.38;;;21.76;100.00
51829;BME280;37881;48.024;8.774;2023-08-12T06:58:47;94223.81;;;21.71;100.00
51829;BME280;37881;48.024;8.774;2023-08-12T07:01:14;94208.78;;;21.98;100.00
51829;BME280;37881;48.024;8.774;2023-08-12T07:03:41;94215.13;;;22.28;100.00
51829;BME280;37881;48.024;8.774;2023-08-12T07:06:08;94209.06;;;22.30;100.00
51829;BME280;37881;48.024;8.774;2023-08-12T07:08:35;94207.53;;;22.85;100.00
51829;BME280;37881;48.024;8.774;2023-08-12T07:11:02;94203.00;;;23.55;100.00
51829;BME280;37881;48.024;8.774;2023-08-12T07:13:28;94211.94;;;23.79;100.00
51829;BME280;37881;48.024;8.774;2023-08-12T07:15:55;94222.13;;;24.40;100.00
51829;BME280;37881;48.024;8.774;2023-08-12T07:18:22;94213.97;;;23.11;100.00
51829;BME280;37881;48.024;8.774;2023-08-12T07:20:49;94219.69;;;22.82;100.00
51829;BME280;37881;48.024;8.774;2023-08-12T07:23:16;94219.81;;;22.72;100.00
51829;BME280;37881;48.024;8.774;2023-08-12T07:25:48;94205.16;;;23.19;100.00
51829;BME280;37881;48.024;8.774;2023-08-12T07:28:15;94207.56;;;24.04;100.00
51829;BME280;37881;48.024;8.774;2023-08-12T07:30:42;94205.13;;;24.18;100.00
51829;BME280;37881;48.024;8.774;2023-08-12T07:33:08;94213.16;;;23.52;100.00
51829;BME280;37881;48.024;8.774;2023-08-12T07:35:35;94219.28;;;23.50;100.00
51829;BME280;37881;48.024;8.774;2023-08-12T07:38:02;94234.03;;;22.89;100.00
51829;BME280;37881;48.024;8.774;2023-08-12T07:40:29;94241.31;;;22.46;100.00
51829;BME280;37881;48.024;8.774;2023-08-12T07:42:56;94246.16;;;22.01;100.00
51829;BME280;37881;48.024;8.774;2023-08-12T07:45:23;94255.91;;;21.90;100.00
51829;BME280;37881;48.024;8.774;2023-08-12T07:47:50;94267.84;;;21.37;100.00
51829;BME280;37881;48.024;8.774;2023-08-12T07:50:17;94257.66;;;21.49;100.00
51829;BME280;37881;48.024;8.774;2023-08-12T07:52:44;94252.81;;;21.34;100.00
51829;BME280;37881;48.024;8.774;2023-08-12T07:55:11;94245.78;;;21.00;100.00
51829;BME280;37881;48.024;8.774;2023-08-12T07:57:39;94260.16;;;20.84;100.00
51829;BME280;37881;48.024;8.774;2023-08-12T08:00:06;94250.25;;;21.07;100.00
51829;BME280;37881;48.024;8.774;2023-08-12T08:02:34;94236.81;;;21.59;100.00
51829;BME280;37881;48.024;8.774;2023-08-12T08:05:01;94238.56;;;22.66;100.00
51829;BME280;37881;48.024;8.774;2023-08-12T08:07:29;94238.59;;;24.27;100.00
51829;BME280;37881;48.024;8.774;2023-08-12T08:09:56;94238.69;;;23.80;100.00
51829;BME280;37881;48.024;8.774;2023-08-12T08:12:23;94242.88;;;23.90;100.00
51829;BME280;37881;48.024;8.774;2023-08-12T08:14:50;94233.91;;;23.86;100.00
51829;BME280;37881;48.024;8.774;2023-08-12T08:17:16;94245.56;;;23.12;100.00
51829;BME280;37881;48.024;8.774;2023-08-12T08:19:43;94247.38;;;23.15;100.00
51829;BME280;37881;48.024;8.774;2023-08-12T08:22:10;94250.66;;;23.13;100.00
51829;BME280;37881;48.024;8.774;2023-08-12T08:24:37;94257.81;;;23.15;100.00
51829;BME280;37881;48.024;8.774;2023-08-12T08:27:04;94254.38;;;24.24;100.00
51829;BME280;37881;48.024;8.774;2023-08-12T08:29:31;94254.75;;;23.59;100.00
51829;BME280;37881;48.024;8.774;2023-08-12T08:31:58;94257.31;;;23.37;100.00
51829;BME280;37881;48.024;8.774;2023-08-12T08:34:24;94259.00;;;23.75;100.00
51829;BME280;37881;48.024;8.774;2023-08-12T08:36:51;94254.81;;;23.65;100.00
51829;BME280;37881;48.024;8.774;2023-08-12T08:39:18;94261.91;;;23.81;100.00
51829;BME280;37881;48.024;8.774;2023-08-12T08:41:47;94263.84;;;23.75;100.00
51829;BME280;37881;48.024;8.774;2023-08-12T08:44:14;94261.25;;;24.92;100.00
51829;BME280;37881;48.024;8.774;2023-08-12T08:46:42;94259.63;;;27.13;100.00
51829;BME280;37881;48.024;8.774;2023-08-12T08:49:10;94253.56;;;27.62;98.97
51829;BME280;37881;48.024;8.774;2023-08-12T08:51:38;94258.44;;;26.69;100.00
51829;BME280;37881;48.024;8.774;2023-08-12T08:54:05;94256.63;;;26.26;100.00
51829;BME280;37881;48.024;8.774;2023-08-12T08:56:32;94258.09;;;25.88;100.00
51829;BME280;37881;48.024;8.774;2023-08-12T08:59:03;94247.94;;;26.47;100.00
51829;BME280;37881;48.024;8.774;2023-08-12T09:01:31;94245.16;;;29.68;89.73
51829;BME280;37881;48.024;8.774;2023-08-12T09:03:58;94245.06;;;32.23;74.64
51829;BME280;37881;48.024;8.774;2023-08-12T09:06:25;94237.06;;;31.87;68.08
51829;BME280;37881;48.024;8.774;2023-08-12T09:08:52;94244.19;;;32.49;66.60
51829;BME280;37881;48.024;8.774;2023-08-12T09:11:20;94245.84;;;31.49;65.84
51829;BME280;37881;48.024;8.774;2023-08-12T09:13:47;94252.56;;;30.60;73.15
51829;BME280;37881;48.024;8.774;2023-08-12T09:16:15;94259.81;;;31.47;73.57
51829;BME280;37881;48.024;8.774;2023-08-12T09:18:42;94263.03;;;31.91;67.99
51829;BME280;37881;48.024;8.774;2023-08-12T09:21:09;94262.44;;;30.40;75.94
51829;BME280;37881;48.024;8.774;2023-08-12T09:23:38;94260.25;;;28.12;86.25
51829;BME280;37881;48.024;8.774;2023-08-12T09:26:16;94259.13;;;27.15;94.24
51829;BME280;37881;48.024;8.774;2023-08-12T09:28:43;94263.09;;;27.59;93.48
51829;BME280;37881;48.024;8.774;2023-08-12T09:31:30;94252.19;;;27.85;89.26
51829;BME280;37881;48.024;8.774;2023-08-12T09:34:03;94239.38;;;27.26;95.18
51829;BME280;37881;48.024;8.774;2023-08-12T09:36:30;94229.41;;;27.08;95.81
51829;BME280;37881;48.024;8.774;2023-08-12T09:38:57;94221.56;;;26.56;98.83
51829;BME280;37881;48.024;8.774;2023-08-12T09:41:27;94232.59;;;26.37;100.00
51829;BME280;37881;48.024;8.774;2023-08-12T09:43:58;94218.25;;;26.46;100.00
51829;BME280;37881;48.024;8.774;2023-08-12T09:46:25;94215.38;;;26.91;100.00
51829;BME280;37881;48.024;8.774;2023-08-12T09:48:52;94213.38;;;28.33;94.11
51829;BME280;37881;48.024;8.774;2023-08-12T09:51:20;94213.75;;;29.91;83.98
51829;BME280;37881;48.024;8.774;2023-08-12T09:53:51;94193.94;;;31.01;78.06
51829;BME280;37881;48.024;8.774;2023-08-12T09:56:19;94196.88;;;32.10;73.90
51829;BME280;37881;48.024;8.774;2023-08-12T09:58:50;94210.13;;;32.70;70.13
51829;BME280;37881;48.024;8.774;2023-08-12T10:01:19;94228.28;;;32.67;69.60
51829;BME280;37881;48.024;8.774;2023-08-12T10:03:50;94218.19;;;32.58;69.24
51829;BME280;37881;48.024;8.774;2023-08-12T10:06:18;94234.19;;;32.69;67.66
51829;BME280;37881;48.024;8.774;2023-08-12T10:08:46;94228.50;;;30.99;72.34
51829;BME280;37881;48.024;8.774;2023-08-12T10:11:14;94244.56;;;30.13;77.81
51829;BME280;37881;48.024;8.774;2023-08-12T10:13:41;94237.31;;;28.87;84.46
51829;BME280;37881;48.024;8.774;2023-08-12T10:16:09;94239.63;;;28.22;89.56
51829;BME280;37881;48.024;8.774;2023-08-12T10:18:38;94239.44;;;28.51;85.19
51829;BME280;37881;48.024;8.774;2023-08-12T10:21:09;94240.53;;;28.42;86.09
51829;BME280;37881;48.024;8.774;2023-08-12T10:23:37;94249.06;;;28.66;84.38
51829;BME280;37881;48.024;8.774;2023-08-12T10:26:05;94255.84;;;29.07;82.43
51829;BME280;37881;48.024;8.774;2023-08-12T10:28:34;94264.91;;;29.30;81.42
51829;BME280;37881;48.024;8.774;2023-08-12T10:31:04;94258.28;;;29.46;79.29
51829;BME280;37881;48.024;8.774;2023-08-12T10:33:39;94262.56;;;29.04;80.01
51829;BME280;37881;48.024;8.774;2023-08-12T10:36:06;94262.97;;;28.89;77.99
51829;BME280;37881;48.024;8.774;2023-08-12T10:38:34;94268.59;;;27.81;85.38
51829;BME280;37881;48.024;8.774;2023-08-12T10:41:21;94266.66;;;27.59;86.49
51829;BME280;37881;48.024;8.774;2023-08-12T10:43:55;94264.25;;;27.75;86.39
51829;BME280;37881;48.024;8.774;2023-08-12T10:46:33;94259.13;;;27.79;93.90
51829;BME280;37881;48.024;8.774;2023-08-12T10:49:07;94259.31;;;27.39;96.38
51829;BME280;37881;48.024;8.774;2023-08-12T10:54:19;94259.94;;;26.53;100.00
51829;BME280;37881;48.024;8.774;2023-08-12T11:02:21;94263.03;;;26.27;100.00
51829;BME280;37881;48.024;8.774;2023-08-12T11:05:01;94266.88;;;26.69;100.00
51829;BME280;37881;48.024;8.774;2023-08-12T11:10:25;94262.50;;;26.51;100.00
51829;BME280;37881;48.024;8.774;2023-08-12T11:15:32;94261.13;;;27.20;100.00
51829;BME280;37881;48.024;8.774;2023-08-12T11:18:05;94258.19;;;26.73;100.00
51829;BME280;37881;48.024;8.774;2023-08-12T11:20:32;94248.44;;;26.74;100.00
51829;BME280;37881;48.024;8.774;2023-08-12T11:23:00;94250.25;;;26.48;97.94
51829;BME280;37881;48.024;8.774;2023-08-12T11:25:28;94245.63;;;26.40;94.45
51829;BME280;37881;48.024;8.774;2023-08-12T11:27:56;94241.28;;;26.44;90.38
51829;BME280;37881;48.024;8.774;2023-08-12T11:30:23;94253.72;;;27.28;85.88
51829;BME280;37881;48.024;8.774;2023-08-12T11:32:52;94246.28;;;27.83;82.20
51829;BME280;37881;48.024;8.774;2023-08-12T11:35:21;94244.81;;;27.71;79.93
51829;BME280;37881;48.024;8.774;2023-08-12T11:37:50;94239.66;;;27.17;80.96
51829;BME280;37881;48.024;8.774;2023-08-12T11:40:17;94242.31;;;26.64;83.28
51829;BME280;37881;48.024;8.774;2023-08-12T11:42:46;94236.16;;;26.54;85.27
51829;BME280;37881;48.024;8.774;2023-08-12T11:45:16;94245.66;;;26.62;87.64
51829;BME280;37881;48.024;8.774;2023-08-12T11:47:43;94246.56;;;27.04;84.36
51829;BME280;37881;48.024;8.774;2023-08-12T11:50:11;94244.84;;;26.84;85.33
51829;BME280;37881;48.024;8.774;2023-08-12T11:52:39;94239.97;;;27.66;84.05
51829;BME280;37881;48.024;8.774;2023-08-12T11:55:07;94231.16;;;27.34;85.39
51829;BME280;37881;48.024;8.774;2023-08-12T11:57:34;94220.28;;;27.55;82.33
51829;BME280;37881;48.024;8.774;2023-08-12T12:00:03;94234.50;;;27.21;84.07
51829;BME280;37881;48.024;8.774;2023-08-12T12:02:51;94237.19;;;27.55;83.71
51829;BME280;37881;48.024;8.774;2023-08-12T12:05:27;94231.81;;;27.57;81.25
51829;BME280;37881;48.024;8.774;2023-08-12T12:07:58;94225.81;;;27.19;82.13
51829;BME280;37881;48.024;8.774;2023-08-12T12:10:33;94226.22;;;26.59;83.98
51829;BME280;37881;48.024;8.774;2023-08-12T12:13:02;94240.50;;;26.55;85.98
51829;BME280;37881;48.024;8.774;2023-08-12T12:15:31;94254.81;;;26.80;85.02
51829;BME280;37881;48.024;8.774;2023-08-12T12:17:58;94257.91;;;26.54;86.98
51829;BME280;37881;48.024;8.774;2023-08-12T12:20:25;94252.53;;;26.27;88.16
51829;BME280;37881;48.024;8.774;2023-08-12T12:22:53;94256.63;;;26.43;88.75
51829;BME280;37881;48.024;8.774;2023-08-12T12:25:21;94262.97;;;27.00;86.17
51829;BME280;37881;48.024;8.774;2023-08-12T12:27:48;94257.13;;;27.68;81.96
51829;BME280;37881;48.024;8.774;2023-08-12T12:30:16;94250.16;;;27.75;81.86
51829;BME280;37881;48.024;8.774;2023-08-12T12:32:43;94254.56;;;27.70;82.12
51829;BME280;37881;48.024;8.774;2023-08-12T12:35:10;94231.72;;;27.04;84.57
51829;BME280;37881;48.024;8.774;2023-08-12T12:37:38;94227.47;;;26.63;91.30
51829;BME280;37881;48.024;8.774;2023-08-12T12:40:05;94215.44;;;26.68;88.37
51829;BME280;37881;48.024;8.774;2023-08-12T12:42:32;94214.06;;;27.09;85.67
51829;BME280;37881;48.024;8.774;2023-08-12T12:44:59;94204.63;;;27.01;87.31
51829;BME280;37881;48.024;8.774;2023-08-12T12:47:26;94207.47;;;27.54;83.51
51829;BME280;37881;48.024;8.774;2023-08-12T12:49:53;94204.63;;;27.01;85.23
51829;BME280;37881;48.024;8.774;2023-08-12T12:52:19;94198.09;;;27.28;85.22
51829;BME280;37881;48.024;8.774;2023-08-12T12:54:46;94195.44;;;26.72;86.72
51829;BME280;37881;48.024;8.774;2023-08-12T12:57:13;94189.88;;;27.36;86.41
51829;BME280;37881;48.024;8.774;2023-08-12T12:59:39;94188.84;;;27.39;83.84
51829;BME280;37881;48.024;8.774;2023-08-12T13:02:06;94182.34;;;27.61;81.88
51829;BME280;37881;48.024;8.774;2023-08-12T13:04:33;94192.56;;;27.64;82.12
51829;BME280;37881;48.024;8.774;2023-08-12T13:07:00;94196.31;;;28.20;78.97
51829;BME280;37881;48.024;8.774;2023-08-12T13:09:27;94190.59;;;27.95;78.75
51829;BME280;37881;48.024;8.774;2023-08-12T13:11:54;94188.63;;;27.79;82.75